sensor_id;sensor_type;location;lat;lon;timestamp;temperature;humidity
15359;DHT22;7779;49.596;11.070;2023-07-16T00:01:36;21.80;77.40
15359;DHT22;7779;49.596;11.070;2023-07-16T00:04:02;21.80;77.60
15359;DHT22;7779;49.596;11.070;2023-07-16T00:06:27;21.90;77.90
15359;DHT22;7779;49.596;11.070;2023-07-16T00:08:53;21.90;78.00
15359;DHT22;7779;49.596;11.070;2023-07-16T00:11:19;21.90;78.10
15359;DHT22;7779;49.596;11.070;2023-07-16T00:13:45;21.90;78.20
15359;DHT22;7779;49.596;11.070;2023-07-16T00:16:13;21.90;78.30
15359;DHT22;7779;49.596;11.070;2023-07-16T00:18:43;21.90;78.60
15359;DHT22;7779;49.596;11.070;2023-07-16T00:21:10;21.90;79.10
15359;DHT22;7779;49.596;11.070;2023-07-16T00:23:36;21.90;78.80
15359;DHT22;7779;49.596;11.070;2023-07-16T00:26:02;21.90;78.90
15359;DHT22;7779;49.596;11.070;2023-07-16T00:28:29;21.90;79.00
15359;DHT22;7779;49.596;11.070;2023-07-16T00:30:55;22.00;79.10
15359;DHT22;7779;49.596;11.070;2023-07-16T00:33:21;21.90;79.10
15359;DHT22;7779;49.596;11.070;2023-07-16T00:35:47;21.90;79.10
15359;DHT22;7779;49.596;11.070;2023-07-16T00:38:15;22.00;79.20
15359;DHT22;7779;49.596;11.070;2023-07-16T00:40:43;22.00;79.20
15359;DHT22;7779;49.596;11.070;2023-07-16T00:43:09;22.00;79.30
15359;DHT22;7779;49.596;11.070;2023-07-16T00:45:35;22.00;79.40
15359;DHT22;7779;49.596;11.070;2023-07-16T00:48:02;22.00;79.60
15359;DHT22;7779;49.596;11.070;2023-07-16T00:50:31;22.00;79.70
15359;DHT22;7779;49.596;11.070;2023-07-16T00:53:00;22.00;79.80
15359;DHT22;7779;49.596;11.070;2023-07-16T00:55:28;22.00;82.50
15359;DHT22;7779;49.596;11.070;2023-07-16T00:57:57;22.00;80.10
15359;DHT22;7779;49.596;11.070;2023-07-16T01:00:28;22.00;80.30
15359;DHT22;7779;49.596;11.070;2023-07-16T01:02:54;22.00;80.30
15359;DHT22;7779;49.596;11.070;2023-07-16T01:05:21;22.00;80.40
15359;DHT22;7779;49.596;11.070;2023-07-16T01:07:56;22.00;80.50
15359;DHT22;7779;49.596;11.070;2023-07-16T01:10:26;22.00;81.90
15359;DHT22;7779;49.596;11.070;2023-07-16T01:12:55;22.00;80.70
15359;DHT22;7779;49.596;11.070;2023-07-16T01:15:22;22.00;81.10
15359;DHT22;7779;49.596;11.070;2023-07-16T01:17:48;22.10;81.00
15359;DHT22;7779;49.596;11.070;2023-07-16T01:20:13;22.10;81.00
15359;DHT22;7779;49.596;11.070;2023-07-16T01:23:13;22.00;81.00
15359;DHT22;7779;49.596;11.070;2023-07-16T01:29:06;22.00;81.90
15359;DHT22;7779;49.596;11.070;2023-07-16T01:31:33;22.00;82.00
15359;DHT22;7779;49.596;11.070;2023-07-16T01:34:00;22.00;80.10
15359;DHT22;7779;49.596;11.070;2023-07-16T01:36:29;22.00;80.10
15359;DHT22;7779;49.596;11.070;2023-07-16T01:38:56;22.00;80.00
15359;DHT22;7779;49.596;11.070;2023-07-16T01:41:22;21.90;80.10
15359;DHT22;7779;49.596;11.070;2023-07-16T01:43:47;21.90;80.00
15359;DHT22;7779;49.596;11.070;2023-07-16T01:46:13;21.90;80.00
15359;DHT22;7779;49.596;11.070;2023-07-16T01:48:40;21.80;79.90
15359;DHT22;7779;49.596;11.070;2023-07-16T01:51:06;21.80;80.00
15359;DHT22;7779;49.596;11.070;2023-07-16T01:53:31;21.80;80.10
15359;DHT22;7779;49.596;11.070;2023-07-16T01:55:58;21.80;80.20
15359;DHT22;7779;49.596;11.070;2023-07-16T01:58:25;21.80;80.40
15359;DHT22;7779;49.596;11.070;2023-07-16T02:00:51;21.70;80.30
15359;DHT22;7779;49.596;11.070;2023-07-16T02:03:17;21.70;80.40
15359;DHT22;7779;49.596;11.070;2023-07-16T02:05:42;21.70;80.40
15359;DHT22;7779;49.596;11.070;2023-07-16T02:08:09;21.70;80.60
15359;DHT22;7779;49.596;11.070;2023-07-16T02:10:35;21.70;80.70
15359;DHT22;7779;49.596;11.070;2023-07-16T02:13:01;21.70;80.80
15359;DHT22;7779;49.596;11.070;2023-07-16T02:15:27;21.60;80.70
15359;DHT22;7779;49.596;11.070;2023-07-16T02:17:52;21.60;80.80
15359;DHT22;7779;49.596;11.070;2023-07-16T02:20:18;21.60;80.90
15359;DHT22;7779;49.596;11.070;2023-07-16T02:22:44;21.60;81.00
15359;DHT22;7779;49.596;11.070;2023-07-16T02:25:11;21.60;81.10
15359;DHT22;7779;49.596;11.070;2023-07-16T02:27:38;21.60;81.30
15359;DHT22;7779;49.596;11.070;2023-07-16T02:30:04;21.60;81.40
15359;DHT22;7779;49.596;11.070;2023-07-16T02:32:32;21.50;81.40
15359;DHT22;7779;49.596;11.070;2023-07-16T02:35:00;21.60;81.60
15359;DHT22;7779;49.596;11.070;2023-07-16T02:37:27;21.50;81.60
15359;DHT22;7779;49.596;11.070;2023-07-16T02:39:53;21.60;81.80
15359;DHT22;7779;49.596;11.070;2023-07-16T02:42:19;21.50;81.70
15359;DHT22;7779;49.596;11.070;2023-07-16T02:44:44;21.50;81.60
15359;DHT22;7779;49.596;11.070;2023-07-16T02:47:11;21.50;81.60
15359;DHT22;7779;49.596;11.070;2023-07-16T02:49:37;21.50;81.70
15359;DHT22;7779;49.596;11.070;2023-07-16T02:52:04;21.50;81.80
15359;DHT22;7779;49.596;11.070;2023-07-16T02:54:31;21.50;81.70
15359;DHT22;7779;49.596;11.070;2023-07-16T02:56:58;21.50;81.80
15359;DHT22;7779;49.596;11.070;2023-07-16T02:59:24;21.50;81.90
15359;DHT22;7779;49.596;11.070;2023-07-16T03:01:50;21.50;82.00
15359;DHT22;7779;49.596;11.070;2023-07-16T03:04:16;21.40;82.00
15359;DHT22;7779;49.596;11.070;2023-07-16T03:06:42;21.40;82.10
15359;DHT22;7779;49.596;11.070;2023-07-16T03:09:08;21.40;82.00
15359;DHT22;7779;49.596;11.070;2023-07-16T03:11:34;21.40;82.00
15359;DHT22;7779;49.596;11.070;2023-07-16T03:14:00;21.40;82.00
15359;DHT22;7779;49.596;11.070;2023-07-16T03:16:26;21.40;82.00
15359;DHT22;7779;49.596;11.070;2023-07-16T03:18:53;21.40;82.10
15359;DHT22;7779;49.596;11.070;2023-07-16T03:21:19;21.40;82.30
15359;DHT22;7779;49.596;11.070;2023-07-16T03:23:44;21.40;82.30
15359;DHT22;7779;49.596;11.070;2023-07-16T03:26:10;21.30;82.20
15359;DHT22;7779;49.596;11.070;2023-07-16T03:28:36;21.40;82.50
15359;DHT22;7779;49.596;11.070;2023-07-16T03:31:05;21.30;82.40
15359;DHT22;7779;49.596;11.070;2023-07-16T03:33:34;21.30;82.40
15359;DHT22;7779;49.596;11.070;2023-07-16T03:35:59;21.30;82.50
15359;DHT22;7779;49.596;11.070;2023-07-16T03:38:25;21.30;82.60
15359;DHT22;7779;49.596;11.070;2023-07-16T03:40:52;21.30;82.70
15359;DHT22;7779;49.596;11.070;2023-07-16T03:43:17;21.30;82.90
15359;DHT22;7779;49.596;11.070;2023-07-16T03:45:44;21.30;82.90
15359;DHT22;7779;49.596;11.070;2023-07-16T03:48:10;21.30;83.00
15359;DHT22;7779;49.596;11.070;2023-07-16T03:50:36;21.30;82.90
15359;DHT22;7779;49.596;11.070;2023-07-16T03:53:02;21.30;82.90
15359;DHT22;7779;49.596;11.070;2023-07-16T03:55:29;21.30;83.10
15359;DHT22;7779;49.596;11.070;2023-07-16T03:57:55;21.30;83.00
15359;DHT22;7779;49.596;11.070;2023-07-16T04:00:21;21.30;83.10
15359;DHT22;7779;49.596;11.070;2023-07-16T04:02:49;21.30;83.20
15359;DHT22;7779;49.596;11.070;2023-07-16T04:05:17;21.30;84.80
15359;DHT22;7779;49.596;11.070;2023-07-16T04:07:43;21.20;83.30
15359;DHT22;7779;49.596;11.070;2023-07-16T04:10:09;21.30;83.40
15359;DHT22;7779;49.596;11.070;2023-07-16T04:12:34;21.30;83.40
15359;DHT22;7779;49.596;11.070;2023-07-16T04:15:00;21.20;83.30
15359;DHT22;7779;49.596;11.070;2023-07-16T04:17:26;21.30;83.20
15359;DHT22;7779;49.596;11.070;2023-07-16T04:19:52;21.30;83.20
15359;DHT22;7779;49.596;11.070;2023-07-16T04:22:17;21.30;82.90
15359;DHT22;7779;49.596;11.070;2023-07-16T04:24:43;21.30;82.60
15359;DHT22;7779;49.596;11.070;2023-07-16T04:27:09;21.30;82.40
15359;DHT22;7779;49.596;11.070;2023-07-16T04:29:35;21.20;82.10
15359;DHT22;7779;49.596;11.070;2023-07-16T04:32:02;21.20;82.00
15359;DHT22;7779;49.596;11.070;2023-07-16T04:34:28;21.20;82.00
15359;DHT22;7779;49.596;11.070;2023-07-16T04:36:54;21.20;82.00
15359;DHT22;7779;49.596;11.070;2023-07-16T04:39:19;21.20;82.50
15359;DHT22;7779;49.596;11.070;2023-07-16T04:41:45;21.20;83.50
15359;DHT22;7779;49.596;11.070;2023-07-16T04:44:11;21.30;84.40
15359;DHT22;7779;49.596;11.070;2023-07-16T04:46:36;21.40;84.80
15359;DHT22;7779;49.596;11.070;2023-07-16T04:49:04;21.50;85.20
15359;DHT22;7779;49.596;11.070;2023-07-16T04:51:30;22.40;86.30
15359;DHT22;7779;49.596;11.070;2023-07-16T04:53:56;21.70;85.20
15359;DHT22;7779;49.596;11.070;2023-07-16T04:56:21;21.90;84.40
15359;DHT22;7779;49.596;11.070;2023-07-16T04:58:47;22.00;84.00
15359;DHT22;7779;49.596;11.070;2023-07-16T05:01:13;22.00;81.90
15359;DHT22;7779;49.596;11.070;2023-07-16T05:03:38;22.10;81.00
15359;DHT22;7779;49.596;11.070;2023-07-16T05:06:05;22.10;80.30
15359;DHT22;7779;49.596;11.070;2023-07-16T05:08:30;22.10;79.60
15359;DHT22;7779;49.596;11.070;2023-07-16T05:10:56;22.10;79.20
15359;DHT22;7779;49.596;11.070;2023-07-16T05:13:22;22.10;79.50
15359;DHT22;7779;49.596;11.070;2023-07-16T05:15:47;22.10;79.60
15359;DHT22;7779;49.596;11.070;2023-07-16T05:18:13;22.10;80.30
15359;DHT22;7779;49.596;11.070;2023-07-16T05:20:39;22.20;80.40
15359;DHT22;7779;49.596;11.070;2023-07-16T05:23:05;22.20;79.80
15359;DHT22;7779;49.596;11.070;2023-07-16T05:25:30;22.20;79.00
15359;DHT22;7779;49.596;11.070;2023-07-16T05:27:56;22.20;78.30
15359;DHT22;7779;49.596;11.070;2023-07-16T05:30:22;22.10;77.80
15359;DHT22;7779;49.596;11.070;2023-07-16T05:32:48;22.00;78.10
15359;DHT22;7779;49.596;11.070;2023-07-16T05:35:14;22.00;77.40
15359;DHT22;7779;49.596;11.070;2023-07-16T05:37:39;22.00;77.50
15359;DHT22;7779;49.596;11.070;2023-07-16T05:40:06;21.90;77.50
15359;DHT22;7779;49.596;11.070;2023-07-16T05:42:34;21.90;77.50
15359;DHT22;7779;49.596;11.070;2023-07-16T05:45:00;21.80;77.30
15359;DHT22;7779;49.596;11.070;2023-07-16T05:47:26;21.80;77.10
15359;DHT22;7779;49.596;11.070;2023-07-16T05:49:51;21.70;76.90
15359;DHT22;7779;49.596;11.070;2023-07-16T05:52:17;21.70;76.90
15359;DHT22;7779;49.596;11.070;2023-07-16T05:54:44;21.60;76.90
15359;DHT22;7779;49.596;11.070;2023-07-16T05:57:10;21.50;76.90
15359;DHT22;7779;49.596;11.070;2023-07-16T05:59:36;21.50;77.10
15359;DHT22;7779;49.596;11.070;2023-07-16T06:02:03;21.50;77.20
15359;DHT22;7779;49.596;11.070;2023-07-16T06:04:30;21.50;77.20
15359;DHT22;7779;49.596;11.070;2023-07-16T06:06:57;21.40;77.10
15359;DHT22;7779;49.596;11.070;2023-07-16T06:09:23;21.40;77.20
15359;DHT22;7779;49.596;11.070;2023-07-16T06:11:49;21.40;77.20
15359;DHT22;7779;49.596;11.070;2023-07-16T06:14:15;21.30;77.00
15359;DHT22;7779;49.596;11.070;2023-07-16T06:16:41;21.30;77.10
15359;DHT22;7779;49.596;11.070;2023-07-16T06:19:07;21.30;77.10
15359;DHT22;7779;49.596;11.070;2023-07-16T06:21:33;21.30;77.00
15359;DHT22;7779;49.596;11.070;2023-07-16T06:23:59;21.30;77.00
15359;DHT22;7779;49.596;11.070;2023-07-16T06:26:25;21.20;76.90
15359;DHT22;7779;49.596;11.070;2023-07-16T06:28:50;21.20;77.10
15359;DHT22;7779;49.596;11.070;2023-07-16T06:31:17;21.20;77.40
15359;DHT22;7779;49.596;11.070;2023-07-16T06:33:43;21.20;77.60
15359;DHT22;7779;49.596;11.070;2023-07-16T06:36:09;21.30;77.80
15359;DHT22;7779;49.596;11.070;2023-07-16T06:38:34;21.30;77.80
15359;DHT22;7779;49.596;11.070;2023-07-16T06:41:00;21.20;77.60
15359;DHT22;7779;49.596;11.070;2023-07-16T06:43:27;21.30;77.50
15359;DHT22;7779;49.596;11.070;2023-07-16T06:45:52;21.30;77.40
15359;DHT22;7779;49.596;11.070;2023-07-16T06:48:18;21.30;77.40
15359;DHT22;7779;49.596;11.070;2023-07-16T06:50:44;21.30;77.50
15359;DHT22;7779;49.596;11.070;2023-07-16T06:53:10;21.40;77.60
15359;DHT22;7779;49.596;11.070;2023-07-16T06:55:36;21.40;77.90
15359;DHT22;7779;49.596;11.070;2023-07-16T06:58:02;21.40;78.00
15359;DHT22;7779;49.596;11.070;2023-07-16T07:00:28;21.50;78.20
15359;DHT22;7779;49.596;11.070;2023-07-16T07:02:54;21.60;78.20
15359;DHT22;7779;49.596;11.070;2023-07-16T07:05:20;21.60;77.80
15359;DHT22;7779;49.596;11.070;2023-07-16T07:07:46;21.70;77.70
15359;DHT22;7779;49.596;11.070;2023-07-16T07:10:12;21.70;77.40
15359;DHT22;7779;49.596;11.070;2023-07-16T07:12:38;21.80;76.90
15359;DHT22;7779;49.596;11.070;2023-07-16T07:15:07;21.90;76.70
15359;DHT22;7779;49.596;11.070;2023-07-16T07:17:34;21.90;76.30
15359;DHT22;7779;49.596;11.070;2023-07-16T07:20:01;21.90;76.10
15359;DHT22;7779;49.596;11.070;2023-07-16T07:22:28;21.90;75.90
15359;DHT22;7779;49.596;11.070;2023-07-16T07:24:54;22.00;75.90
15359;DHT22;7779;49.596;11.070;2023-07-16T07:27:20;22.00;75.60
15359;DHT22;7779;49.596;11.070;2023-07-16T07:29:46;22.00;75.40
15359;DHT22;7779;49.596;11.070;2023-07-16T07:32:12;22.00;74.90
15359;DHT22;7779;49.596;11.070;2023-07-16T07:34:38;22.00;74.70
15359;DHT22;7779;49.596;11.070;2023-07-16T07:37:05;22.00;73.50
15359;DHT22;7779;49.596;11.070;2023-07-16T07:39:30;22.00;74.50
15359;DHT22;7779;49.596;11.070;2023-07-16T07:41:56;22.00;74.50
15359;DHT22;7779;49.596;11.070;2023-07-16T07:44:22;22.00;74.70
15359;DHT22;7779;49.596;11.070;2023-07-16T07:46:48;22.00;74.90
15359;DHT22;7779;49.596;11.070;2023-07-16T07:49:13;22.00;75.40
15359;DHT22;7779;49.596;11.070;2023-07-16T07:51:39;22.10;75.80
15359;DHT22;7779;49.596;11.070;2023-07-16T07:54:05;22.20;76.20
15359;DHT22;7779;49.596;11.070;2023-07-16T07:56:30;22.40;76.50
15359;DHT22;7779;49.596;11.070;2023-07-16T07:58:56;22.60;76.90
15359;DHT22;7779;49.596;11.070;2023-07-16T08:01:22;22.80;76.90
15359;DHT22;7779;49.596;11.070;2023-07-16T08:03:48;23.00;76.70
15359;DHT22;7779;49.596;11.070;2023-07-16T08:06:13;23.20;76.10
15359;DHT22;7779;49.596;11.070;2023-07-16T08:08:39;23.30;75.30
15359;DHT22;7779;49.596;11.070;2023-07-16T08:11:05;23.50;74.50
15359;DHT22;7779;49.596;11.070;2023-07-16T08:13:31;23.60;73.70
15359;DHT22;7779;49.596;11.070;2023-07-16T08:15:57;23.70;72.70
15359;DHT22;7779;49.596;11.070;2023-07-16T08:18:23;23.80;72.10
15359;DHT22;7779;49.596;11.070;2023-07-16T08:20:48;23.80;71.80
15359;DHT22;7779;49.596;11.070;2023-07-16T08:23:14;23.90;71.40
15359;DHT22;7779;49.596;11.070;2023-07-16T08:25:40;23.90;68.40
15359;DHT22;7779;49.596;11.070;2023-07-16T08:28:05;23.90;70.30
15359;DHT22;7779;49.596;11.070;2023-07-16T08:30:32;23.90;69.90
15359;DHT22;7779;49.596;11.070;2023-07-16T08:32:58;23.90;69.70
15359;DHT22;7779;49.596;11.070;2023-07-16T08:35:24;23.90;67.70
15359;DHT22;7779;49.596;11.070;2023-07-16T08:37:50;23.90;69.70
15359;DHT22;7779;49.596;11.070;2023-07-16T08:40:16;23.90;69.70
15359;DHT22;7779;49.596;11.070;2023-07-16T08:42:44;24.00;69.80
15359;DHT22;7779;49.596;11.070;2023-07-16T08:45:11;23.90;67.80
15359;DHT22;7779;49.596;11.070;2023-07-16T08:47:37;24.00;69.70
15359;DHT22;7779;49.596;11.070;2023-07-16T08:50:04;24.00;69.80
15359;DHT22;7779;49.596;11.070;2023-07-16T08:52:30;24.10;69.70
15359;DHT22;7779;49.596;11.070;2023-07-16T08:54:56;24.20;69.20
15359;DHT22;7779;49.596;11.070;2023-07-16T08:57:22;24.20;69.60
15359;DHT22;7779;49.596;11.070;2023-07-16T08:59:49;24.30;70.00
15359;DHT22;7779;49.596;11.070;2023-07-16T09:02:19;24.30;69.10
15359;DHT22;7779;49.596;11.070;2023-07-16T09:04:47;24.40;68.00
15359;DHT22;7779;49.596;11.070;2023-07-16T09:07:14;24.40;68.10
15359;DHT22;7779;49.596;11.070;2023-07-16T09:09:40;24.50;67.90
15359;DHT22;7779;49.596;11.070;2023-07-16T09:12:06;24.50;67.60
15359;DHT22;7779;49.596;11.070;2023-07-16T09:14:37;24.60;67.70
15359;DHT22;7779;49.596;11.070;2023-07-16T09:17:03;24.60;67.70
15359;DHT22;7779;49.596;11.070;2023-07-16T09:19:32;24.70;67.60
15359;DHT22;7779;49.596;11.070;2023-07-16T09:21:58;24.80;67.00
15359;DHT22;7779;49.596;11.070;2023-07-16T09:24:23;24.80;67.10
15359;DHT22;7779;49.596;11.070;2023-07-16T09:26:50;24.90;66.90
15359;DHT22;7779;49.596;11.070;2023-07-16T09:29:19;25.00;66.50
15359;DHT22;7779;49.596;11.070;2023-07-16T09:31:56;25.10;66.30
15359;DHT22;7779;49.596;11.070;2023-07-16T09:34:23;25.20;65.10
15359;DHT22;7779;49.596;11.070;2023-07-16T09:36:51;25.30;63.40
15359;DHT22;7779;49.596;11.070;2023-07-16T09:39:18;25.30;65.50
15359;DHT22;7779;49.596;11.070;2023-07-16T09:41:50;25.40;65.10
15359;DHT22;7779;49.596;11.070;2023-07-16T09:44:17;25.40;64.30
15359;DHT22;7779;49.596;11.070;2023-07-16T09:46:44;25.40;64.60
15359;DHT22;7779;49.596;11.070;2023-07-16T09:49:10;25.50;64.50
15359;DHT22;7779;49.596;11.070;2023-07-16T09:51:38;25.50;64.30
15359;DHT22;7779;49.596;11.070;2023-07-16T09:54:05;25.50;64.20
15359;DHT22;7779;49.596;11.070;2023-07-16T09:56:40;25.60;64.30
15359;DHT22;7779;49.596;11.070;2023-07-16T09:59:13;25.60;63.30
15359;DHT22;7779;49.596;11.070;2023-07-16T10:01:41;25.60;63.60
15359;DHT22;7779;49.596;11.070;2023-07-16T10:04:18;25.70;63.60
15359;DHT22;7779;49.596;11.070;2023-07-16T10:06:54;25.80;62.20
15359;DHT22;7779;49.596;11.070;2023-07-16T10:09:42;25.80;62.30
15359;DHT22;7779;49.596;11.070;2023-07-16T10:12:19;25.90;61.00
15359;DHT22;7779;49.596;11.070;2023-07-16T10:17:21;26.10;62.90
15359;DHT22;7779;49.596;11.070;2023-07-16T10:20:07;26.10;62.70
15359;DHT22;7779;49.596;11.070;2023-07-16T10:27:34;26.40;61.50
15359;DHT22;7779;49.596;11.070;2023-07-16T10:30:01;26.50;61.90
15359;DHT22;7779;49.596;11.070;2023-07-16T10:32:29;26.60;61.70
15359;DHT22;7779;49.596;11.070;2023-07-16T10:34:57;26.80;61.30
15359;DHT22;7779;49.596;11.070;2023-07-16T10:37:23;26.90;61.10
15359;DHT22;7779;49.596;11.070;2023-07-16T10:39:52;27.00;60.40
15359;DHT22;7779;49.596;11.070;2023-07-16T10:42:20;27.00;59.80
15359;DHT22;7779;49.596;11.070;2023-07-16T10:44:49;27.10;59.30
15359;DHT22;7779;49.596;11.070;2023-07-16T10:47:50;27.10;58.80
15359;DHT22;7779;49.596;11.070;2023-07-16T10:50:20;27.10;56.80
15359;DHT22;7779;49.596;11.070;2023-07-16T10:52:56;27.00;58.40
15359;DHT22;7779;49.596;11.070;2023-07-16T10:55:23;27.00;57.20
15359;DHT22;7779;49.596;11.070;2023-07-16T10:57:50;26.90;58.10
15359;DHT22;7779;49.596;11.070;2023-07-16T11:00:17;26.90;58.00
15359;DHT22;7779;49.596;11.070;2023-07-16T11:02:44;26.80;58.20
15359;DHT22;7779;49.596;11.070;2023-07-16T11:05:11;26.80;58.20
15359;DHT22;7779;49.596;11.070;2023-07-16T11:07:37;26.80;58.00
15359;DHT22;7779;49.596;11.070;2023-07-16T11:10:03;26.80;57.80
15359;DHT22;7779;49.596;11.070;2023-07-16T11:12:29;26.80;57.60
15359;DHT22;7779;49.596;11.070;2023-07-16T11:14:55;26.70;57.60
15359;DHT22;7779;49.596;11.070;2023-07-16T11:17:23;26.70;57.60
15359;DHT22;7779;49.596;11.070;2023-07-16T11:19:51;26.80;57.80
15359;DHT22;7779;49.596;11.070;2023-07-16T11:22:18;26.80;57.90
15359;DHT22;7779;49.596;11.070;2023-07-16T11:24:49;26.90;57.90
15359;DHT22;7779;49.596;11.070;2023-07-16T11:27:23;27.00;57.40
15359;DHT22;7779;49.596;11.070;2023-07-16T11:29:52;27.10;57.90
15359;DHT22;7779;49.596;11.070;2023-07-16T11:32:30;27.20;57.70
15359;DHT22;7779;49.596;11.070;2023-07-16T11:34:59;27.30;56.30
15359;DHT22;7779;49.596;11.070;2023-07-16T11:37:27;27.30;57.10
15359;DHT22;7779;49.596;11.070;2023-07-16T11:39:56;27.40;56.80
15359;DHT22;7779;49.596;11.070;2023-07-16T11:42:23;27.50;56.70
15359;DHT22;7779;49.596;11.070;2023-07-16T11:44:53;27.50;56.50
15359;DHT22;7779;49.596;11.070;2023-07-16T11:47:20;27.60;56.40
15359;DHT22;7779;49.596;11.070;2023-07-16T11:49:47;27.70;56.00
15359;DHT22;7779;49.596;11.070;2023-07-16T11:52:20;27.70;55.50
15359;DHT22;7779;49.596;11.070;2023-07-16T11:54:48;27.80;54.90
15359;DHT22;7779;49.596;11.070;2023-07-16T11:57:14;27.90;55.40
15359;DHT22;7779;49.596;11.070;2023-07-16T11:59:40;27.90;55.20
15359;DHT22;7779;49.596;11.070;2023-07-16T12:02:06;28.00;54.80
15359;DHT22;7779;49.596;11.070;2023-07-16T12:04:32;28.00;55.10
15359;DHT22;7779;49.596;11.070;2023-07-16T12:06:58;28.10;54.20
15359;DHT22;7779;49.596;11.070;2023-07-16T12:09:24;28.10;53.90
15359;DHT22;7779;49.596;11.070;2023-07-16T12:11:49;28.10;54.30
15359;DHT22;7779;49.596;11.070;2023-07-16T12:14:15;28.00;54.00
15359;DHT22;7779;49.596;11.070;2023-07-16T12:16:41;28.00;53.30
15359;DHT22;7779;49.596;11.070;2023-07-16T12:19:08;28.00;53.30
15359;DHT22;7779;49.596;11.070;2023-07-16T12:21:34;28.00;53.20
15359;DHT22;7779;49.596;11.070;2023-07-16T12:24:00;28.00;53.20
15359;DHT22;7779;49.596;11.070;2023-07-16T12:26:26;28.10;51.40
15359;DHT22;7779;49.596;11.070;2023-07-16T12:28:53;28.10;53.30
15359;DHT22;7779;49.596;11.070;2023-07-16T12:31:19;28.20;53.10
15359;DHT22;7779;49.596;11.070;2023-07-16T12:33:46;28.20;52.90
15359;DHT22;7779;49.596;11.070;2023-07-16T12:36:13;28.20;52.70
15359;DHT22;7779;49.596;11.070;2023-07-16T12:38:39;28.20;52.50
15359;DHT22;7779;49.596;11.070;2023-07-16T12:41:06;28.20;52.30
15359;DHT22;7779;49.596;11.070;2023-07-16T12:43:32;28.20;52.10
15359;DHT22;7779;49.596;11.070;2023-07-16T12:46:04;28.20;52.00
15359;DHT22;7779;49.596;11.070;2023-07-16T12:48:31;28.20;51.30
15359;DHT22;7779;49.596;11.070;2023-07-16T12:50:57;28.10;51.40
15359;DHT22;7779;49.596;11.070;2023-07-16T12:53:24;28.10;51.50
15359;DHT22;7779;49.596;11.070;2023-07-16T12:55:50;28.10;51.60
15359;DHT22;7779;49.596;11.070;2023-07-16T12:58:16;28.00;51.70
15359;DHT22;7779;49.596;11.070;2023-07-16T13:00:42;28.00;51.70
15359;DHT22;7779;49.596;11.070;2023-07-16T13:03:07;28.00;51.50
15359;DHT22;7779;49.596;11.070;2023-07-16T13:05:43;27.90;51.30
15359;DHT22;7779;49.596;11.070;2023-07-16T13:08:10;27.90;50.40
15359;DHT22;7779;49.596;11.070;2023-07-16T13:10:36;27.90;51.10
15359;DHT22;7779;49.596;11.070;2023-07-16T13:13:02;27.90;51.20
15359;DHT22;7779;49.596;11.070;2023-07-16T13:15:29;27.80;51.10
15359;DHT22;7779;49.596;11.070;2023-07-16T13:17:55;27.80;51.10
15359;DHT22;7779;49.596;11.070;2023-07-16T13:20:21;27.80;51.10
15359;DHT22;7779;49.596;11.070;2023-07-16T13:22:48;27.80;51.20
15359;DHT22;7779;49.596;11.070;2023-07-16T13:25:14;27.80;51.10
15359;DHT22;7779;49.596;11.070;2023-07-16T13:27:40;27.80;51.10
15359;DHT22;7779;49.596;11.070;2023-07-16T13:30:06;27.80;51.10
15359;DHT22;7779;49.596;11.070;2023-07-16T13:32:32;27.80;51.00
15359;DHT22;7779;49.596;11.070;2023-07-16T13:34:58;27.80;51.00
15359;DHT22;7779;49.596;11.070;2023-07-16T13:37:24;27.80;51.60
15359;DHT22;7779;49.596;11.070;2023-07-16T13:39:50;27.80;50.80
15359;DHT22;7779;49.596;11.070;2023-07-16T13:42:16;27.80;50.70
15359;DHT22;7779;49.596;11.070;2023-07-16T13:44:41;27.90;50.60
15359;DHT22;7779;49.596;11.070;2023-07-16T13:47:07;27.90;49.50
15359;DHT22;7779;49.596;11.070;2023-07-16T13:49:33;27.90;50.40
15359;DHT22;7779;49.596;11.070;2023-07-16T13:51:58;27.90;50.40
15359;DHT22;7779;49.596;11.070;2023-07-16T13:54:24;27.90;50.30
15359;DHT22;7779;49.596;11.070;2023-07-16T13:56:50;27.90;50.40
15359;DHT22;7779;49.596;11.070;2023-07-16T13:59:16;27.90;50.30
15359;DHT22;7779;49.596;11.070;2023-07-16T14:01:41;27.90;50.30
15359;DHT22;7779;49.596;11.070;2023-07-16T14:04:07;27.90;50.20
15359;DHT22;7779;49.596;11.070;2023-07-16T14:06:33;27.90;50.00
15359;DHT22;7779;49.596;11.070;2023-07-16T14:08:59;27.90;49.90
15359;DHT22;7779;49.596;11.070;2023-07-16T14:11:25;27.90;49.70
15359;DHT22;7779;49.596;11.070;2023-07-16T14:13:51;27.90;49.80
15359;DHT22;7779;49.596;11.070;2023-07-16T14:16:19;27.90;49.90
15359;DHT22;7779;49.596;11.070;2023-07-16T14:18:49;27.90;49.90
15359;DHT22;7779;49.596;11.070;2023-07-16T14:21:17;27.90;49.70
15359;DHT22;7779;49.596;11.070;2023-07-16T14:23:43;27.90;50.00
15359;DHT22;7779;49.596;11.070;2023-07-16T14:26:09;28.00;50.00
15359;DHT22;7779;49.596;11.070;2023-07-16T14:28:35;28.00;49.90
15359;DHT22;7779;49.596;11.070;2023-07-16T14:31:01;28.00;49.80
15359;DHT22;7779;49.596;11.070;2023-07-16T14:33:26;28.10;50.40
15359;DHT22;7779;49.596;11.070;2023-07-16T14:35:54;28.10;49.60
15359;DHT22;7779;49.596;11.070;2023-07-16T14:38:20;28.10;49.50
15359;DHT22;7779;49.596;11.070;2023-07-16T14:40:45;28.10;49.30
15359;DHT22;7779;49.596;11.070;2023-07-16T14:43:13;28.10;49.30
15359;DHT22;7779;49.596;11.070;2023-07-16T14:45:38;28.20;49.30
15359;DHT22;7779;49.596;11.070;2023-07-16T14:48:05;28.20;49.20
15359;DHT22;7779;49.596;11.070;2023-07-16T14:50:31;28.20;49.00
15359;DHT22;7779;49.596;11.070;2023-07-16T14:52:57;28.20;48.80
15359;DHT22;7779;49.596;11.070;2023-07-16T14:55:23;28.20;48.70
15359;DHT22;7779;49.596;11.070;2023-07-16T14:57:48;28.20;48.70
15359;DHT22;7779;49.596;11.070;2023-07-16T15:00:14;28.20;48.70
15359;DHT22;7779;49.596;11.070;2023-07-16T15:02:40;28.20;48.70
15359;DHT22;7779;49.596;11.070;2023-07-16T15:05:08;28.30;48.90
15359;DHT22;7779;49.596;11.070;2023-07-16T15:07:35;28.30;48.80
15359;DHT22;7779;49.596;11.070;2023-07-16T15:10:02;28.30;48.70
15359;DHT22;7779;49.596;11.070;2023-07-16T15:12:28;28.30;48.60
15359;DHT22;7779;49.596;11.070;2023-07-16T15:14:54;28.30;48.50
15359;DHT22;7779;49.596;11.070;2023-07-16T15:17:20;28.30;48.40
15359;DHT22;7779;49.596;11.070;2023-07-16T15:19:48;28.30;48.30
15359;DHT22;7779;49.596;11.070;2023-07-16T15:22:15;28.40;48.30
15359;DHT22;7779;49.596;11.070;2023-07-16T15:24:49;28.40;48.30
15359;DHT22;7779;49.596;11.070;2023-07-16T15:27:15;28.40;47.50
15359;DHT22;7779;49.596;11.070;2023-07-16T15:29:41;28.40;48.20
15359;DHT22;7779;49.596;11.070;2023-07-16T15:32:07;28.40;48.10
15359;DHT22;7779;49.596;11.070;2023-07-16T15:34:33;28.40;48.10
15359;DHT22;7779;49.596;11.070;2023-07-16T15:36:59;28.40;48.00
15359;DHT22;7779;49.596;11.070;2023-07-16T15:39:25;28.40;48.00